Grand Luxe — WDD6093 — position and weather

sailwx.info

Track history (hours):
 
Tides and Currents Weather Stations Pressure Air Temp Water Temp Dewpoint Dewpoint Depression Visibility Wind Speed Wind Dir Waves Ship Positions

Grand Luxe

Owner: Expoships , LLLP, Bonita Springs, FL. More information available from US FCC via Universal Licensing System and Coast Guard Vessel Documentation Center.

Last reported at 2018-Feb-19 00:00 UTC. Time now 2018-Feb-19 00:26 UTC.
Position N 25°52' W 080°07'.

; draft 2.2 m.

MMSI: 367168190.

Date/timePositionNaut miles runAvg speedWind from/ knotsBaromVisibWave heightAir tempDewpointWater temp
2018-Feb-19 00:00N 25°52' W 080°07'4 7.4
2018-Feb-18 23:30N 25°56' W 080°07'4 7.3
2018-Feb-18 23:00N 25°60' W 080°07'4 7.6
2018-Feb-18 22:30N 26°03' W 080°06'3 6.6
2018-Feb-18 22:00N 26°07' W 080°05'4 8.2
2018-Feb-18 21:30N 26°11' W 080°05'4 7.4
2018-Feb-18 21:00N 26°14' W 080°04'4 7.2
2018-Feb-18 20:30N 26°18' W 080°04'4 7.0
2018-Feb-18 20:00N 26°21' W 080°03'3 6.9
2018-Feb-18 19:30N 26°25' W 080°03'4 7.1
2018-Feb-18 19:00N 26°28' W 080°03'4 6.9
2018-Feb-18 18:29N 26°32' W 080°02'17 6.2
2018-Feb-18 15:43N 26°49' W 080°01'1 6.4
2018-Feb-18 15:30N 26°50' W 080°01'3 6.5
2018-Feb-18 15:00N 26°54' W 080°02'3 6.9
2018-Feb-18 14:30N 26°57' W 080°03'4 7.1
2018-Feb-18 14:00N 27°00' W 080°04'  
2018-Feb-14 13:14N 27°01' W 080°04'2 7.3
2018-Feb-14 13:00N 26°59' W 080°03'4 7.4
2018-Feb-14 12:31N 26°56' W 080°03'36 8.4
2018-Feb-14 08:11N 26°19' W 080°03'2 9.8
2018-Feb-14 07:59N 26°17' W 080°03'5 9.9
2018-Feb-14 07:30N 26°13' W 080°03'510.0
2018-Feb-14 07:00N 26°08' W 080°03'5 9.5
2018-Feb-14 06:31N 26°03' W 080°04'510.0
2018-Feb-14 06:00N 25°58' W 080°04'5 9.7
2018-Feb-14 05:30N 25°53' W 080°04'5 9.8
2018-Feb-14 05:00N 25°48' W 080°05'3 6.7
2018-Feb-14 04:30N 25°46' W 080°07'4 4.9
2018-Feb-14 03:47N 25°46' W 080°11'0 0.0
2018-Feb-14 03:29N 25°46' W 080°11'0 0.0
2018-Feb-14 02:59N 25°46' W 080°11'0 0.0
2018-Feb-14 02:26N 25°46' W 080°11'0 0.0
2018-Feb-14 01:56N 25°46' W 080°11'0 0.0
2018-Feb-14 01:26N 25°46' W 080°11'0 0.0
2018-Feb-14 00:50N 25°46' W 080°11'0 0.0
2018-Feb-14 00:26N 25°46' W 080°11'0 0.0
2018-Feb-13 23:56N 25°46' W 080°11'0 0.0
2018-Feb-13 23:26N 25°46' W 080°11'0 0.0
2018-Feb-13 22:59N 25°46' W 080°11'0 0.0
2018-Feb-13 22:26N 25°46' W 080°11'0 0.0
2018-Feb-13 21:56N 25°46' W 080°11'0 0.0
2018-Feb-13 21:29N 25°46' W 080°11'0 0.0
2018-Feb-13 20:59N 25°46' W 080°11'0 0.0
2018-Feb-13 20:29N 25°46' W 080°11'0 0.0
2018-Feb-13 19:59N 25°46' W 080°11'0 0.0
2018-Feb-13 19:29N 25°46' W 080°11'0 0.0
2018-Feb-13 18:59N 25°46' W 080°11'0 0.0
2018-Feb-13 18:29N 25°46' W 080°11'0 0.0
2018-Feb-13 17:59N 25°46' W 080°11'0 0.0
2018-Feb-13 17:29N 25°46' W 080°11'0 0.0
2018-Feb-13 16:59N 25°46' W 080°11'0 0.0
2018-Feb-13 16:29N 25°46' W 080°11'0 0.0
2018-Feb-13 15:59N 25°46' W 080°11'0 0.0
2018-Feb-11 19:38N 25°46' W 080°11'0 0.0
2018-Feb-11 19:29N 25°46' W 080°11'0 0.5
2018-Feb-11 18:59N 25°46' W 080°11'3 5.6
2018-Feb-11 18:31N 25°43' W 080°11'0 0.8
2018-Feb-11 18:00N 25°43' W 080°11'1 2.2
2018-Feb-11 17:30N 25°44' W 080°11'2 3.9
2018-Feb-11 17:00N 25°46' W 080°11'0 0.5
2018-Feb-11 16:30N 25°46' W 080°11'0 0.0
2018-Feb-11 16:00N 25°46' W 080°11'0 0.0
2018-Feb-11 15:30N 25°46' W 080°11'0 0.0
2018-Feb-11 14:57N 25°46' W 080°11'0 0.0
2018-Feb-11 14:30N 25°46' W 080°11'0 0.0
2018-Feb-11 13:57N 25°46' W 080°11'0 0.0
2018-Feb-11 13:24N 25°46' W 080°11'0 0.0
2018-Feb-11 12:54N 25°46' W 080°11'0 0.0
2018-Feb-11 12:30N 25°46' W 080°11'0 0.0
2018-Feb-11 02:42N 25°46' W 080°11'0 0.1
2018-Feb-11 02:30N 25°46' W 080°11'2 3.6
2018-Feb-11 02:00N 25°45' W 080°11'0 0.6
2018-Feb-11 01:29N 25°44' W 080°11'0 0.0
2018-Feb-11 00:59N 25°44' W 080°11'0 0.1
2018-Feb-11 00:23N 25°44' W 080°11'1 4.0
2018-Feb-11 00:00N 25°46' W 080°11'1 1.0
2018-Feb-10 23:28N 25°46' W 080°11'0 0.0
2018-Feb-10 22:58N 25°46' W 080°11'0 0.0
2018-Feb-10 22:28N 25°46' W 080°11'0 0.0
2018-Feb-10 21:55N 25°46' W 080°11'0 0.0
2018-Feb-10 21:25N 25°46' W 080°11'0 0.0
2018-Feb-10 20:58N 25°46' W 080°11'0 0.0
2018-Feb-09 03:00N 25°46' W 080°11'1 2.6
2018-Feb-09 02:30N 25°45' W 080°11'1 0.3
2018-Feb-09 00:30N 25°45' W 080°11'  
Track history (hours):
 
Tides and Currents Weather Stations Pressure Air Temp Water Temp Dewpoint Dewpoint Depression Visibility Wind Speed Wind Dir Waves Ship Positions

Grand Luxe

Owner: Expoships , LLLP, Bonita Springs, FL. More information available from US FCC via Universal Licensing System and Coast Guard Vessel Documentation Center.

Last reported at 2018-Feb-19 00:00 UTC. Time now 2018-Feb-19 00:26 UTC.
Position N 25°52' W 080°07'.

; draft 2.2 m.

MMSI: 367168190.

Date/timePositionNaut miles runAvg speedWind from/ knotsBaromVisibWave heightAir tempDewpointWater temp
2018-Feb-19 00:00N 25°52' W 080°07'4 7.4
2018-Feb-18 23:30N 25°56' W 080°07'4 7.3
2018-Feb-18 23:00N 25°60' W 080°07'4 7.6
2018-Feb-18 22:30N 26°03' W 080°06'3 6.6
2018-Feb-18 22:00N 26°07' W 080°05'4 8.2
2018-Feb-18 21:30N 26°11' W 080°05'4 7.4
2018-Feb-18 21:00N 26°14' W 080°04'4 7.2
2018-Feb-18 20:30N 26°18' W 080°04'4 7.0
2018-Feb-18 20:00N 26°21' W 080°03'3 6.9
2018-Feb-18 19:30N 26°25' W 080°03'4 7.1
2018-Feb-18 19:00N 26°28' W 080°03'4 6.9
2018-Feb-18 18:29N 26°32' W 080°02'17 6.2
2018-Feb-18 15:43N 26°49' W 080°01'1 6.4
2018-Feb-18 15:30N 26°50' W 080°01'3 6.5
2018-Feb-18 15:00N 26°54' W 080°02'3 6.9
2018-Feb-18 14:30N 26°57' W 080°03'4 7.1
2018-Feb-18 14:00N 27°00' W 080°04'  
2018-Feb-14 13:14N 27°01' W 080°04'2 7.3
2018-Feb-14 13:00N 26°59' W 080°03'4 7.4
2018-Feb-14 12:31N 26°56' W 080°03'36 8.4
2018-Feb-14 08:11N 26°19' W 080°03'2 9.8
2018-Feb-14 07:59N 26°17' W 080°03'5 9.9
2018-Feb-14 07:30N 26°13' W 080°03'510.0
2018-Feb-14 07:00N 26°08' W 080°03'5 9.5
2018-Feb-14 06:31N 26°03' W 080°04'510.0
2018-Feb-14 06:00N 25°58' W 080°04'5 9.7
2018-Feb-14 05:30N 25°53' W 080°04'5 9.8
2018-Feb-14 05:00N 25°48' W 080°05'3 6.7
2018-Feb-14 04:30N 25°46' W 080°07'4 4.9
2018-Feb-14 03:47N 25°46' W 080°11'0 0.0
2018-Feb-14 03:29N 25°46' W 080°11'0 0.0
2018-Feb-14 02:59N 25°46' W 080°11'0 0.0
2018-Feb-14 02:26N 25°46' W 080°11'0 0.0
2018-Feb-14 01:56N 25°46' W 080°11'0 0.0
2018-Feb-14 01:26N 25°46' W 080°11'0 0.0
2018-Feb-14 00:50N 25°46' W 080°11'0 0.0
2018-Feb-14 00:26N 25°46' W 080°11'0 0.0
2018-Feb-13 23:56N 25°46' W 080°11'0 0.0
2018-Feb-13 23:26N 25°46' W 080°11'0 0.0
2018-Feb-13 22:59N 25°46' W 080°11'0 0.0
2018-Feb-13 22:26N 25°46' W 080°11'0 0.0
2018-Feb-13 21:56N 25°46' W 080°11'0 0.0
2018-Feb-13 21:29N 25°46' W 080°11'0 0.0
2018-Feb-13 20:59N 25°46' W 080°11'0 0.0
2018-Feb-13 20:29N 25°46' W 080°11'0 0.0
2018-Feb-13 19:59N 25°46' W 080°11'0 0.0
2018-Feb-13 19:29N 25°46' W 080°11'0 0.0
2018-Feb-13 18:59N 25°46' W 080°11'0 0.0
2018-Feb-13 18:29N 25°46' W 080°11'0 0.0
2018-Feb-13 17:59N 25°46' W 080°11'0 0.0
2018-Feb-13 17:29N 25°46' W 080°11'0 0.0
2018-Feb-13 16:59N 25°46' W 080°11'0 0.0
2018-Feb-13 16:29N 25°46' W 080°11'0 0.0
2018-Feb-13 15:59N 25°46' W 080°11'0 0.0
2018-Feb-11 19:38N 25°46' W 080°11'0 0.0
2018-Feb-11 19:29N 25°46' W 080°11'0 0.5
2018-Feb-11 18:59N 25°46' W 080°11'3 5.6
2018-Feb-11 18:31N 25°43' W 080°11'0 0.8
2018-Feb-11 18:00N 25°43' W 080°11'1 2.2
2018-Feb-11 17:30N 25°44' W 080°11'2 3.9
2018-Feb-11 17:00N 25°46' W 080°11'0 0.5
2018-Feb-11 16:30N 25°46' W 080°11'0 0.0
2018-Feb-11 16:00N 25°46' W 080°11'0 0.0
2018-Feb-11 15:30N 25°46' W 080°11'0 0.0
2018-Feb-11 14:57N 25°46' W 080°11'0 0.0
2018-Feb-11 14:30N 25°46' W 080°11'0 0.0
2018-Feb-11 13:57N 25°46' W 080°11'0 0.0
2018-Feb-11 13:24N 25°46' W 080°11'0 0.0
2018-Feb-11 12:54N 25°46' W 080°11'0 0.0
2018-Feb-11 12:30N 25°46' W 080°11'0 0.0
2018-Feb-11 02:42N 25°46' W 080°11'0 0.1
2018-Feb-11 02:30N 25°46' W 080°11'2 3.6
2018-Feb-11 02:00N 25°45' W 080°11'0 0.6
2018-Feb-11 01:29N 25°44' W 080°11'0 0.0
2018-Feb-11 00:59N 25°44' W 080°11'0 0.1
2018-Feb-11 00:23N 25°44' W 080°11'1 4.0
2018-Feb-11 00:00N 25°46' W 080°11'1 1.0
2018-Feb-10 23:28N 25°46' W 080°11'0 0.0
2018-Feb-10 22:58N 25°46' W 080°11'0 0.0
2018-Feb-10 22:28N 25°46' W 080°11'0 0.0
2018-Feb-10 21:55N 25°46' W 080°11'0 0.0
2018-Feb-10 21:25N 25°46' W 080°11'0 0.0
2018-Feb-10 20:58N 25°46' W 080°11'0 0.0
2018-Feb-09 03:00N 25°46' W 080°11'1 2.6
2018-Feb-09 02:30N 25°45' W 080°11'1 0.3
2018-Feb-09 00:30N 25°45' W 080°11'  

Dump ship's entire track history